Aviation Digital Data Service (ADDS)

Output produced by METARs form (1159 UTC 01 July 2015)
found at http://aviationweather.gov/adds/metars/
 
KHPN 011134Z 0112/0212 VRB05KT P6SM VCSH SCT050 BKN100 
     FM011300 18004KT P6SM -SHRA VCTS BKN050CB 
     FM011500 21007KT P6SM BKN050 
     FM011900 24010G18KT P6SM BKN050 
     FM020100 28005KT P6SM BKN050 
     FM020700 32006KT P6SM SCT050 BKN250 AMD NOT SKED